Time;durP1;ratioP1;P1;durP2;ratioP2;P2;SDS_P1;SDS_P2;PMS_P1;PMS_P2;Temp;Humidity;BMP_temperature;BMP_pressure;BME280_temperature;BME280_humidity;BME280_pressure;Samples;Min_cycle;Max_cycle;Signal;HPM_P1;HPM_P2
2022/12/10 06:00:52;;;;;;;25.40;22.70;;;4.80;97.20;;;;;;1727421;28;20204;-70
2022/12/10 06:01:43;;;;;;;24.75;22.15;;;4.80;97.20;;;;;;1727225;28;20201;-70
2022/12/10 06:02:35;;;;;;;25.60;21.57;;;4.70;97.20;;;;;;1727334;28;20207;-71
2022/12/10 06:03:27;;;;;;;23.60;20.70;;;4.70;97.20;;;;;;1727445;28;20454;-71
2022/12/10 06:04:19;;;;;;;24.90;22.17;;;4.70;97.20;;;;;;1727306;28;20197;-70
2022/12/10 06:05:09;;;;;;;25.98;23.27;;;4.70;97.20;;;;;;1727463;28;20204;-71
2022/12/10 06:06:01;;;;;;;26.87;22.87;;;4.70;97.20;;;;;;1727385;28;20204;-71
2022/12/10 06:06:52;;;;;;;26.20;22.50;;;4.70;97.20;;;;;;1727156;28;20232;-71
2022/12/10 06:07:44;;;;;;;24.63;22.17;;;4.70;97.20;;;;;;1727289;28;20201;-71
2022/12/10 06:08:35;;;;;;;24.90;22.20;;;4.70;97.20;;;;;;1726761;28;20670;-71
2022/12/10 06:09:27;;;;;;;25.67;22.92;;;4.70;97.20;;;;;;1726948;28;20203;-71
2022/12/10 06:10:18;;;;;;;26.23;23.33;;;4.70;97.20;;;;;;1726290;28;20211;-70
2022/12/10 06:11:12;;;;;;;27.43;22.30;;;4.70;97.20;;;;;;1727277;28;20199;-71
2022/12/10 06:12:03;;;;;;;24.33;21.73;;;4.70;97.20;;;;;;1727315;28;20851;-71
2022/12/10 06:12:55;;;;;;;24.55;21.95;;;4.60;97.20;;;;;;1727130;28;20750;-71
2022/12/10 06:13:46;;;;;;;26.25;22.40;;;4.70;97.20;;;;;;1727358;28;20212;-71
2022/12/10 06:14:38;;;;;;;28.57;24.43;;;4.70;97.20;;;;;;1727228;28;20216;-71
2022/12/10 06:15:28;;;;;;;23.40;21.10;;;4.70;97.20;;;;;;1727427;28;20443;-71
2022/12/10 06:16:22;;;;;;;25.47;22.00;;;4.70;97.20;;;;;;1727318;28;20208;-71
2022/12/10 06:17:13;;;;;;;24.65;21.77;;;4.60;97.20;;;;;;1727180;28;20587;-71
2022/12/10 06:18:04;;;;;;;26.57;23.87;;;4.60;97.20;;;;;;1727353;28;20573;-70
2022/12/10 06:18:56;;;;;;;23.52;20.73;;;4.60;97.20;;;;;;1726230;28;20687;-70
2022/12/10 06:19:48;;;;;;;25.23;22.55;;;4.60;97.20;;;;;;1727319;28;20205;-71
2022/12/10 06:20:39;;;;;;;25.92;23.20;;;4.60;97.20;;;;;;1726681;28;20220;-71
2022/12/10 06:21:30;;;;;;;24.98;22.30;;;4.70;97.20;;;;;;1727235;28;20725;-71
2022/12/10 06:22:21;;;;;;;25.90;23.20;;;4.60;97.20;;;;;;1727173;28;20209;-71
2022/12/10 06:23:13;;;;;;;25.63;22.90;;;4.70;97.20;;;;;;1725330;28;20212;-71
2022/12/10 06:24:04;;;;;;;26.05;23.25;;;4.60;97.20;;;;;;1727242;28;20211;-71
2022/12/10 06:24:55;;;;;;;26.20;23.50;;;4.60;97.20;;;;;;1727342;28;20201;-71
2022/12/10 06:25:46;;;;;;;26.17;22.38;;;4.60;97.20;;;;;;1727197;28;20208;-71
2022/12/10 06:26:38;;;;;;;26.23;23.50;;;4.60;97.20;;;;;;1727037;28;20236;-71
2022/12/10 06:27:30;;;;;;;25.20;22.60;;;4.60;97.20;;;;;;1727293;28;20207;-71
2022/12/10 06:28:22;;;;;;;26.05;23.25;;;4.60;97.20;;;;;;1727082;28;20201;-71
2022/12/10 06:29:13;;;;;;;25.75;23.02;;;4.60;97.20;;;;;;1727253;28;20212;-71
2022/12/10 06:30:06;;;;;;;26.33;23.17;;;4.60;97.20;;;;;;1726377;28;20199;-71
2022/12/10 06:30:57;;;;;;;25.67;22.85;;;4.60;97.20;;;;;;1720259;28;20243;-71
2022/12/10 06:31:50;;;;;;;27.08;23.25;;;4.60;97.20;;;;;;1720410;28;20235;-71
2022/12/10 06:32:42;;;;;;;26.08;23.30;;;4.60;97.20;;;;;;1720522;28;20497;-71
2022/12/10 06:33:33;;;;;;;27.10;24.30;;;4.60;97.20;;;;;;1720522;28;20212;-70
2022/12/10 06:34:25;;;;;;;25.17;22.52;;;4.60;97.20;;;;;;1722886;28;20673;-71
2022/12/10 06:35:16;;;;;;;26.50;23.70;;;4.60;97.20;;;;;;1727279;28;20200;-71
2022/12/10 06:36:10;;;;;;;27.43;24.13;;;4.60;97.20;;;;;;1727234;28;20200;-71
2022/12/10 06:37:00;;;;;;;26.25;23.45;;;4.60;97.20;;;;;;1726925;28;20443;-71
2022/12/10 06:37:53;;;;;;;27.90;23.90;;;4.50;97.20;;;;;;1727244;28;20201;-70
2022/12/10 06:38:44;;;;;;;26.25;23.45;;;4.50;97.20;;;;;;1727153;28;20580;-71
2022/12/10 06:39:35;;;;;;;24.48;21.88;;;4.50;97.20;;;;;;1727219;28;20212;-71
2022/12/10 06:40:26;;;;;;;27.58;24.08;;;4.50;97.20;;;;;;1726513;28;20224;-71
2022/12/10 06:41:20;;;;;;;26.77;23.90;;;4.50;97.20;;;;;;1727047;28;20208;-71
2022/12/10 06:42:10;;;;;;;25.67;22.98;;;4.50;97.20;;;;;;1727248;28;20204;-71
2022/12/10 06:43:02;;;;;;;25.47;22.87;;;4.50;97.20;;;;;;1726703;28;20195;-71
2022/12/10 06:43:53;;;;;;;25.85;23.05;;;4.50;97.20;;;;;;1726915;28;20215;-71
2022/12/10 06:44:44;;;;;;;26.43;22.50;;;4.50;97.20;;;;;;1727067;28;20204;-71
2022/12/10 06:45:39;;;;;;;26.42;23.67;;;4.50;97.20;;;;;;1726835;28;20855;-71
2022/12/10 06:46:31;;;;;;;25.75;23.00;;;4.50;97.20;;;;;;1727106;28;20228;-71
2022/12/10 06:47:23;;;;;;;26.27;23.25;;;4.50;97.20;;;;;;1726941;28;20212;-71
2022/12/10 06:48:14;;;;;;;25.48;22.80;;;4.50;97.20;;;;;;1727290;28;20854;-71
2022/12/10 06:49:06;;;;;;;24.30;21.80;;;4.50;97.20;;;;;;1727221;28;20208;-71
2022/12/10 06:49:58;;;;;;;27.40;22.27;;;4.50;97.20;;;;;;1726598;28;20200;-71
2022/12/10 06:50:48;;;;;;;26.10;23.25;;;4.50;97.20;;;;;;1727141;28;20721;-71
2022/12/10 06:51:40;;;;;;;27.10;23.30;;;4.50;97.20;;;;;;1727004;28;20658;-71
2022/12/10 06:52:31;;;;;;;26.35;23.55;;;4.50;97.20;;;;;;1726839;28;20196;-71
2022/12/10 06:53:22;;;;;;;26.10;23.30;;;4.50;97.20;;;;;;1727122;28;20201;-71
2022/12/10 06:54:13;;;;;;;25.20;22.60;;;4.50;97.20;;;;;;1727222;28;20212;-71
2022/12/10 06:55:06;;;;;;;26.00;23.37;;;4.50;97.20;;;;;;1727277;28;20210;-71
2022/12/10 06:55:58;;;;;;;25.48;22.45;;;4.50;97.20;;;;;;1727143;28;20579;-71
2022/12/10 06:56:50;;;;;;;24.90;22.08;;;4.50;97.20;;;;;;1727005;28;20200;-71
2022/12/10 06:57:41;;;;;;;25.10;22.23;;;4.50;97.20;;;;;;1726756;28;20211;-70
2022/12/10 06:58:35;;;;;;;25.73;22.50;;;4.50;97.20;;;;;;1727167;28;20208;-71
2022/12/10 06:59:26;;;;;;;25.50;22.73;;;4.50;97.20;;;;;;1726531;28;20710;-71
2022/12/10 07:00:18;;;;;;;25.60;23.00;;;4.50;97.20;;;;;;1726404;28;20574;-71
2022/12/10 07:01:11;;;;;;;25.77;23.13;;;4.50;97.20;;;;;;1727088;28;20211;-71
2022/12/10 07:02:03;;;;;;;25.65;22.95;;;4.50;97.20;;;;;;1727100;28;20228;-71
2022/12/10 07:02:55;;;;;;;25.98;23.30;;;4.50;97.20;;;;;;1726718;28;20204;-70
2022/12/10 07:03:49;;;;;;;26.33;22.50;;;4.50;97.20;;;;;;1727033;28;20201;-71
2022/12/10 07:04:40;;;;;;;26.45;23.02;;;4.50;97.20;;;;;;1727032;28;20200;-71
2022/12/10 07:05:31;;;;;;;27.20;23.73;;;4.50;97.20;;;;;;1727257;28;20204;-71
2022/12/10 07:06:23;;;;;;;26.08;23.27;;;4.50;97.20;;;;;;1727026;28;20219;-70
2022/12/10 07:07:15;;;;;;;27.00;24.10;;;4.50;97.20;;;;;;1726411;28;20737;-71
2022/12/10 07:08:05;;;;;;;26.38;22.75;;;4.50;97.20;;;;;;1727212;28;20201;-71
2022/12/10 07:08:57;;;;;;;26.33;23.57;;;4.50;97.20;;;;;;1724392;28;20195;-71
2022/12/10 07:09:48;;;;;;;26.33;23.63;;;4.50;97.20;;;;;;1726931;28;20200;-70
2022/12/10 07:10:40;;;;;;;26.60;23.47;;;4.40;97.20;;;;;;1725921;28;20213;-71
2022/12/10 07:11:31;;;;;;;27.08;24.27;;;4.50;97.20;;;;;;1725804;28;20203;-71
2022/12/10 07:12:22;;;;;;;25.60;22.90;;;4.50;97.20;;;;;;1725451;28;20207;-71
2022/12/10 07:13:13;;;;;;;26.60;23.80;;;4.50;97.20;;;;;;1720486;28;20340;-70
2022/12/10 07:14:05;;;;;;;25.37;22.67;;;4.50;97.20;;;;;;1723051;28;20201;-71
2022/12/10 07:14:56;;;;;;;27.42;24.13;;;4.50;97.20;;;;;;1727098;28;20209;-70
2022/12/10 07:15:48;;;;;;;26.23;23.43;;;4.50;97.20;;;;;;1727123;28;20211;-70
2022/12/10 07:16:38;;;;;;;27.08;23.88;;;4.50;97.20;;;;;;1726876;28;20266;-70
2022/12/10 07:17:30;;;;;;;27.53;24.57;;;4.50;97.20;;;;;;1727055;28;20200;-70
2022/12/10 07:18:22;;;;;;;25.92;23.13;;;4.50;97.20;;;;;;1726717;28;20208;-70
2022/12/10 07:19:14;;;;;;;26.00;23.20;;;4.50;97.20;;;;;;1727123;28;20263;-70
2022/12/10 07:20:05;;;;;;;25.50;22.80;;;4.50;97.20;;;;;;1726579;28;20204;-70
2022/12/10 07:20:57;;;;;;;25.55;22.90;;;4.50;97.20;;;;;;1727068;28;20358;-70
2022/12/10 07:21:48;;;;;;;27.02;24.20;;;4.40;97.20;;;;;;1726840;28;20211;-70
2022/12/10 07:22:40;;;;;;;27.83;24.83;;;4.40;97.20;;;;;;1727084;28;20230;-70
2022/12/10 07:23:30;;;;;;;26.85;23.95;;;4.40;97.20;;;;;;1727183;28;20204;-70
2022/12/10 07:24:22;;;;;;;31.50;24.20;;;4.50;97.20;;;;;;1727015;28;20222;-70
2022/12/10 07:25:13;;;;;;;28.05;24.67;;;4.50;97.20;;;;;;1727186;28;20208;-70
2022/12/10 07:26:05;;;;;;;25.23;22.53;;;4.50;97.20;;;;;;1726914;28;20206;-70
2022/12/10 07:26:56;;;;;;;26.90;24.05;;;4.50;97.20;;;;;;1726752;28;20201;-70
2022/12/10 07:27:47;;;;;;;26.63;23.70;;;4.50;97.20;;;;;;1727033;28;20200;-70
2022/12/10 07:28:38;;;;;;;27.05;24.10;;;4.50;97.20;;;;;;1727006;28;20208;-70
2022/12/10 07:29:30;;;;;;;26.52;23.45;;;4.50;97.20;;;;;;1727139;28;20697;-70
2022/12/10 07:30:21;;;;;;;27.42;24.55;;;4.50;97.20;;;;;;1726786;28;20207;-70
2022/12/10 07:31:12;;;;;;;27.23;24.33;;;4.50;97.20;;;;;;1728387;28;20210;-70
2022/12/10 07:32:03;;;;;;;27.75;24.00;;;4.50;97.20;;;;;;1728240;28;20208;-70
2022/12/10 07:32:55;;;;;;;28.17;25.10;;;4.50;97.20;;;;;;1728366;28;20200;-70
2022/12/10 07:33:47;;;;;;;27.15;23.23;;;4.50;97.20;;;;;;1728211;28;20443;-70
2022/12/10 07:34:39;;;;;;;31.13;27.08;;;4.50;97.20;;;;;;1728247;28;20223;-70
2022/12/10 07:35:30;;;;;;;29.13;24.58;;;4.50;97.20;;;;;;1728329;28;20557;-70
2022/12/10 07:36:23;;;;;;;28.50;25.40;;;4.50;97.20;;;;;;1728318;28;20219;-70
2022/12/10 07:37:14;;;;;;;30.73;24.95;;;4.50;97.20;;;;;;1728095;28;20196;-70
2022/12/10 07:38:05;;;;;;;26.30;23.60;;;4.50;97.20;;;;;;1728317;28;20265;-70
2022/12/10 07:38:56;;;;;;;27.17;23.55;;;4.50;97.20;;;;;;1727985;28;20591;-70
2022/12/10 07:39:48;;;;;;;27.50;24.67;;;4.50;97.20;;;;;;1728195;28;20200;-70
2022/12/10 07:40:39;;;;;;;28.67;25.52;;;4.50;97.20;;;;;;1727639;28;20471;-70
2022/12/10 07:41:30;;;;;;;28.53;25.50;;;4.50;97.20;;;;;;1728110;28;20201;-70
2022/12/10 07:42:21;;;;;;;27.23;24.42;;;4.50;97.20;;;;;;1728283;28;20690;-70
2022/12/10 07:43:13;;;;;;;26.87;24.07;;;4.50;97.20;;;;;;1728412;28;20562;-70
2022/12/10 07:44:06;;;;;;;27.15;24.33;;;4.50;97.20;;;;;;1728099;28;20448;-70
2022/12/10 07:44:58;;;;;;;26.75;23.98;;;4.50;97.20;;;;;;1728015;28;20606;-70
2022/12/10 07:45:48;;;;;;;27.70;24.30;;;4.50;97.20;;;;;;1727970;28;20209;-70
2022/12/10 07:46:41;;;;;;;27.80;23.97;;;4.50;97.20;;;;;;1727986;28;20210;-70
2022/12/10 07:47:34;;;;;;;29.10;24.02;;;4.50;97.20;;;;;;1728272;28;20224;-70
2022/12/10 07:48:25;;;;;;;26.80;24.00;;;4.50;97.20;;;;;;1728145;28;20204;-70
2022/12/10 07:49:18;;;;;;;27.40;24.08;;;4.50;97.20;;;;;;1728262;28;20204;-70
2022/12/10 07:50:10;;;;;;;27.35;24.35;;;4.50;97.20;;;;;;1727596;28;20201;-70
2022/12/10 07:51:01;;;;;;;26.98;24.08;;;4.50;97.20;;;;;;1728197;28;20208;-70
2022/12/10 07:51:53;;;;;;;27.03;24.23;;;4.50;97.20;;;;;;1728199;28;20201;-70
2022/12/10 07:52:43;;;;;;;26.42;23.60;;;4.50;97.20;;;;;;1728078;28;20458;-70
2022/12/10 07:53:36;;;;;;;26.23;23.43;;;4.50;97.20;;;;;;1728268;28;20210;-70
2022/12/10 07:54:26;;;;;;;26.35;23.55;;;4.50;97.20;;;;;;1728136;28;20207;-70
2022/12/10 07:55:18;;;;;;;28.20;24.67;;;4.50;97.20;;;;;;1728174;28;20204;-70
2022/12/10 07:56:10;;;;;;;27.05;23.63;;;4.50;97.20;;;;;;1728241;28;20207;-70
2022/12/10 07:57:01;;;;;;;27.83;24.92;;;4.50;97.20;;;;;;1727934;28;20736;-70
2022/12/10 07:57:52;;;;;;;28.75;23.50;;;4.50;97.20;;;;;;1727892;28;20208;-71
2022/12/10 07:58:45;;;;;;;28.27;23.00;;;4.50;97.20;;;;;;1728083;28;20207;-71
2022/12/10 07:59:35;;;;;;;28.10;25.10;;;4.50;97.20;;;;;;1728101;28;20212;-71
2022/12/10 08:00:27;;;;;;;25.93;23.30;;;4.50;97.20;;;;;;1721142;28;20201;-71
2022/12/10 08:01:22;;;;;;;25.23;22.52;;;4.50;97.20;;;;;;1721393;28;20212;-71
2022/12/10 08:02:13;;;;;;;26.92;24.10;;;4.50;97.20;;;;;;1722103;28;20600;-71
2022/12/10 08:03:04;;;;;;;26.38;23.40;;;4.50;97.20;;;;;;1727849;28;20696;-71
2022/12/10 08:03:57;;;;;;;26.47;23.70;;;4.50;97.20;;;;;;1728101;28;20671;-71
2022/12/10 08:04:49;;;;;;;25.90;23.17;;;4.50;97.20;;;;;;1722593;28;20205;-71
2022/12/10 08:05:41;;;;;;;26.00;23.20;;;4.50;97.20;;;;;;1721221;28;20213;-71
2022/12/10 08:06:32;;;;;;;26.50;23.65;;;4.50;97.20;;;;;;1721201;28;20212;-70
2022/12/10 08:07:23;;;;;;;27.37;24.50;;;4.50;97.20;;;;;;1721175;28;20233;-71
2022/12/10 08:08:14;;;;;;;26.75;23.85;;;4.50;97.20;;;;;;1721390;28;20459;-71
2022/12/10 08:09:06;;;;;;;29.23;24.23;;;4.50;97.20;;;;;;1721344;28;20207;-71
2022/12/10 08:09:56;;;;;;;26.75;22.90;;;4.50;97.20;;;;;;1724912;28;20209;-71
2022/12/10 08:10:48;;;;;;;25.97;23.30;;;4.50;97.20;;;;;;1727959;28;20638;-71
2022/12/10 08:11:39;;;;;;;26.35;23.67;;;4.50;97.20;;;;;;1726086;28;20204;-71
2022/12/10 08:12:30;;;;;;;26.37;23.57;;;4.60;97.20;;;;;;1721432;28;20201;-71
2022/12/10 08:13:21;;;;;;;26.20;23.40;;;4.50;97.20;;;;;;1721326;28;20204;-71
2022/12/10 08:14:13;;;;;;;27.50;23.03;;;4.50;97.20;;;;;;1721436;28;20201;-71
2022/12/10 08:15:05;;;;;;;28.23;23.65;;;4.60;97.20;;;;;;1721145;28;20201;-71
2022/12/10 08:16:02;;;;;;;26.58;23.77;;;4.60;97.20;;;;;;1725003;28;20201;-71
2022/12/10 08:16:53;;;;;;;26.33;23.48;;;4.50;97.20;;;;;;1727520;28;20208;-70
2022/12/10 08:17:45;;;;;;;26.13;22.90;;;4.50;97.20;;;;;;1727752;28;20275;-71
2022/12/10 08:18:36;;;;;;;27.63;24.63;;;4.60;97.20;;;;;;1728088;28;20211;-71
2022/12/10 08:19:28;;;;;;;25.85;23.15;;;4.60;97.20;;;;;;1722176;28;20252;-71
2022/12/10 08:20:20;;;;;;;27.25;24.30;;;4.60;97.20;;;;;;1720694;28;20872;-71
2022/12/10 08:21:13;;;;;;;26.90;24.20;;;4.60;97.20;;;;;;1721169;28;20201;-71
2022/12/10 08:22:04;;;;;;;25.98;23.38;;;4.60;97.20;;;;;;1724579;28;20196;-71
2022/12/10 08:22:55;;;;;;;25.50;22.90;;;4.60;97.20;;;;;;1728072;28;20210;-71
2022/12/10 08:23:47;;;;;;;27.23;24.35;;;4.60;97.20;;;;;;1727971;28;20201;-71
2022/12/10 08:24:38;;;;;;;26.85;23.75;;;4.60;97.20;;;;;;1728014;28;20204;-71
2022/12/10 08:25:29;;;;;;;26.40;23.17;;;4.60;97.20;;;;;;1727979;28;20211;-71
2022/12/10 08:26:22;;;;;;;25.00;22.40;;;4.60;97.20;;;;;;1727942;28;20207;-71
2022/12/10 08:27:13;;;;;;;25.02;22.42;;;4.60;97.20;;;;;;1727724;28;20211;-71
2022/12/10 08:28:05;;;;;;;25.92;23.17;;;4.60;97.20;;;;;;1727946;28;20201;-71
2022/12/10 08:28:57;;;;;;;24.50;21.70;;;4.60;97.20;;;;;;1727962;28;20255;-71
2022/12/10 08:29:48;;;;;;;24.90;22.40;;;4.60;97.20;;;;;;1727937;28;20201;-71
2022/12/10 08:30:40;;;;;;;26.93;23.63;;;4.60;97.20;;;;;;1727246;28;20238;-71
2022/12/10 08:31:31;;;;;;;27.92;24.95;;;4.60;97.20;;;;;;1727786;28;20299;-71
2022/12/10 08:32:23;;;;;;;27.57;24.13;;;4.60;97.20;;;;;;1727876;28;20215;-71
2022/12/10 08:33:14;;;;;;;27.17;24.15;;;4.60;97.20;;;;;;1728015;28;20208;-71
2022/12/10 08:34:11;;;;;;;28.35;24.58;;;4.60;97.20;;;;;;1727924;28;20200;-71
2022/12/10 08:35:02;;;;;;;26.65;23.75;;;4.70;97.20;;;;;;1727852;28;20213;-72
2022/12/10 08:35:59;;;;;;;25.20;22.60;;;4.70;97.20;;;;;;1727709;28;20204;-71
2022/12/10 08:36:49;;;;;;;25.58;22.42;;;4.70;97.20;;;;;;1727587;28;20912;-71
2022/12/10 08:37:42;;;;;;;25.50;22.90;;;4.70;97.20;;;;;;1727889;28;20658;-71
2022/12/10 08:38:33;;;;;;;26.63;23.77;;;4.70;97.20;;;;;;1727649;28;20208;-71
2022/12/10 08:39:25;;;;;;;26.48;23.08;;;4.70;97.20;;;;;;1727839;28;20692;-70
2022/12/10 08:40:16;;;;;;;26.35;23.45;;;4.70;97.20;;;;;;1727082;28;20211;-71
2022/12/10 08:41:09;;;;;;;25.37;22.57;;;4.70;97.20;;;;;;1727923;28;20207;-70
2022/12/10 08:42:00;;;;;;;24.42;21.83;;;4.70;97.20;;;;;;1726824;28;20443;-69
2022/12/10 08:42:52;;;;;;;26.10;23.40;;;4.70;97.20;;;;;;1727863;28;20215;-70
2022/12/10 08:43:44;;;;;;;24.17;21.58;;;4.70;97.20;;;;;;1727948;28;20205;-71
2022/12/10 08:44:35;;;;;;;25.20;22.50;;;4.80;97.20;;;;;;1727831;28;20210;-70
2022/12/10 08:45:26;;;;;;;24.05;21.55;;;4.80;97.20;;;;;;1727431;28;20196;-71
2022/12/10 08:46:18;;;;;;;25.40;22.90;;;4.80;97.20;;;;;;1727820;28;20203;-70
2022/12/10 08:47:09;;;;;;;25.48;22.88;;;4.80;97.20;;;;;;1727431;28;20454;-70
2022/12/10 08:48:00;;;;;;;23.80;21.30;;;4.80;97.20;;;;;;1727755;28;20207;-70
2022/12/10 08:48:51;;;;;;;27.50;23.48;;;4.80;97.20;;;;;;1727868;28;20611;-69
2022/12/10 08:49:43;;;;;;;25.00;22.40;;;4.80;97.20;;;;;;1727838;28;20574;-69
2022/12/10 08:50:34;;;;;;;25.45;22.75;;;4.80;97.20;;;;;;1727298;28;20225;-69
2022/12/10 08:51:28;;;;;;;25.40;22.70;;;4.80;97.20;;;;;;1724380;28;20231;-70
2022/12/10 08:52:19;;;;;;;25.48;22.75;;;4.80;97.20;;;;;;1721094;28;20202;-70
2022/12/10 08:53:10;;;;;;;26.00;23.30;;;4.80;97.20;;;;;;1721223;28;20204;-70
2022/12/10 08:54:02;;;;;;;25.37;22.80;;;4.80;97.20;;;;;;1721024;28;20211;-70
2022/12/10 08:54:52;;;;;;;25.48;22.85;;;4.80;97.20;;;;;;1721032;28;20205;-70
2022/12/10 08:55:44;;;;;;;25.40;22.70;;;4.80;97.20;;;;;;1721046;28;20215;-70
2022/12/10 08:56:35;;;;;;;27.67;24.70;;;4.80;97.20;;;;;;1720810;28;20217;-70
2022/12/10 08:57:26;;;;;;;24.50;21.90;;;4.80;97.20;;;;;;1720748;28;20293;-70
2022/12/10 08:58:17;;;;;;;24.70;22.17;;;4.80;97.20;;;;;;1720799;28;20216;-70
2022/12/10 08:59:09;;;;;;;23.93;21.43;;;4.80;97.20;;;;;;1720900;28;20204;-70
2022/12/10 09:00:00;;;;;;;24.80;22.20;;;4.80;97.20;;;;;;1720282;28;20547;-70
2022/12/10 09:00:52;;;;;;;25.67;23.07;;;4.80;97.20;;;;;;1720775;28;20247;-70
2022/12/10 09:01:42;;;;;;;24.98;22.38;;;4.80;97.20;;;;;;1720524;28;20448;-70
2022/12/10 09:02:34;;;;;;;26.00;22.80;;;4.80;97.20;;;;;;1720780;28;20201;-70
2022/12/10 09:03:25;;;;;;;26.50;23.67;;;4.80;97.20;;;;;;1722423;28;20451;-70
2022/12/10 09:04:17;;;;;;;27.07;24.17;;;4.80;97.20;;;;;;1727500;28;20204;-70
2022/12/10 09:05:08;;;;;;;25.83;23.05;;;4.80;97.20;;;;;;1727517;28;20200;-70
2022/12/10 09:06:03;;;;;;;25.70;23.00;;;4.80;97.20;;;;;;1727496;28;20232;-70
2022/12/10 09:06:56;;;;;;;27.05;23.17;;;4.80;97.20;;;;;;1727408;28;20204;-70
2022/12/10 09:07:47;;;;;;;25.52;22.95;;;4.90;97.20;;;;;;1727489;28;20217;-70
2022/12/10 09:08:39;;;;;;;27.90;23.70;;;4.90;97.20;;;;;;1727571;28;20207;-70
2022/12/10 09:09:31;;;;;;;26.10;23.40;;;4.90;97.20;;;;;;1727437;28;20251;-70
2022/12/10 09:10:23;;;;;;;25.70;23.10;;;4.90;97.20;;;;;;1726573;28;20236;-71
2022/12/10 09:11:16;;;;;;;27.42;24.58;;;4.90;97.20;;;;;;1727453;28;20208;-70
2022/12/10 09:12:08;;;;;;;26.48;23.77;;;4.90;97.20;;;;;;1727046;28;20239;-71
2022/12/10 09:12:58;;;;;;;26.00;23.20;;;4.90;97.20;;;;;;1727204;28;20196;-71
2022/12/10 09:13:50;;;;;;;25.80;23.00;;;4.90;97.20;;;;;;1727597;28;20205;-71
2022/12/10 09:14:41;;;;;;;26.35;23.45;;;4.90;97.20;;;;;;1727368;28;20204;-71
2022/12/10 09:15:33;;;;;;;27.05;23.30;;;4.90;97.20;;;;;;1727536;28;20205;-71
2022/12/10 09:16:29;;;;;;;25.08;22.45;;;4.90;97.20;;;;;;1726979;28;20291;-70
2022/12/10 09:17:20;;;;;;;26.88;24.05;;;4.90;97.20;;;;;;1721031;28;20197;-70
2022/12/10 09:18:12;;;;;;;27.50;24.73;;;4.90;97.20;;;;;;1724511;28;20200;-70
2022/12/10 09:19:04;;;;;;;26.50;23.70;;;4.90;97.20;;;;;;1722983;28;20197;-70
2022/12/10 09:19:55;;;;;;;26.23;23.40;;;4.90;97.20;;;;;;1725353;28;20212;-70
2022/12/10 09:20:47;;;;;;;26.40;23.67;;;4.90;97.20;;;;;;1727128;28;20253;-70
2022/12/10 09:21:38;;;;;;;27.00;24.20;;;4.90;97.20;;;;;;1727203;28;20193;-70
2022/12/10 09:22:31;;;;;;;26.85;23.95;;;4.90;97.20;;;;;;1727347;28;20682;-70
2022/12/10 09:23:23;;;;;;;26.00;23.30;;;4.90;97.20;;;;;;1726714;28;20208;-70
2022/12/10 09:24:14;;;;;;;26.33;22.80;;;4.90;97.20;;;;;;1727272;28;20205;-70
2022/12/10 09:25:07;;;;;;;28.07;23.77;;;4.90;97.20;;;;;;1727281;28;20287;-70
2022/12/10 09:25:58;;;;;;;27.38;23.58;;;4.90;97.20;;;;;;1727050;28;20232;-71
2022/12/10 09:26:49;;;;;;;26.93;24.03;;;4.90;97.20;;;;;;1727052;28;20199;-70
2022/12/10 09:27:40;;;;;;;27.45;24.50;;;4.90;97.20;;;;;;1727290;28;20292;-70
2022/12/10 09:28:32;;;;;;;26.23;23.33;;;4.90;97.20;;;;;;1726765;28;20292;-70
2022/12/10 09:29:23;;;;;;;27.27;23.90;;;4.90;97.20;;;;;;1726562;28;20454;-70
2022/12/10 09:30:15;;;;;;;25.17;22.47;;;4.90;97.20;;;;;;1726673;28;20682;-70
2022/12/10 09:31:07;;;;;;;25.00;22.50;;;4.90;97.20;;;;;;1727355;28;20200;-70
2022/12/10 09:31:59;;;;;;;26.02;23.38;;;4.90;97.20;;;;;;1727363;28;20205;-70
2022/12/10 09:32:50;;;;;;;25.08;22.42;;;4.90;97.20;;;;;;1726916;28;20793;-70
2022/12/10 09:33:43;;;;;;;25.77;23.07;;;4.80;97.20;;;;;;1726792;28;20676;-71
2022/12/10 09:34:34;;;;;;;25.73;23.15;;;4.80;97.20;;;;;;1727155;28;20213;-70
2022/12/10 09:35:26;;;;;;;26.80;23.90;;;4.90;97.20;;;;;;1727427;28;20208;-69
2022/12/10 09:36:17;;;;;;;26.65;23.45;;;4.80;97.20;;;;;;1727223;28;20208;-70
2022/12/10 09:37:09;;;;;;;25.73;23.00;;;4.90;97.20;;;;;;1727191;28;20705;-70
2022/12/10 09:38:01;;;;;;;25.83;23.02;;;4.90;97.20;;;;;;1727360;28;20210;-70
2022/12/10 09:38:53;;;;;;;26.58;23.65;;;4.90;97.20;;;;;;1727531;28;20201;-70
2022/12/10 09:39:44;;;;;;;27.33;24.42;;;4.90;97.20;;;;;;1725175;28;20220;-70
2022/12/10 09:40:42;;;;;;;24.10;21.70;;;4.90;97.20;;;;;;1724888;28;20227;-70
2022/12/10 09:41:46;;;;;;;26.55;23.70;;;4.90;97.20;;;;;;1727137;28;20470;-70
2022/12/10 09:42:50;;;;;;;27.67;23.83;;;4.90;97.20;;;;;;1727341;28;20539;-70
2022/12/10 09:43:48;;;;;;;27.85;24.95;;;4.90;97.20;;;;;;1723832;28;20651;-70
2022/12/10 09:44:49;;;;;;;25.65;22.90;;;4.90;97.20;;;;;;1727313;28;20266;-71
2022/12/10 09:45:52;;;;;;;26.02;23.33;;;4.90;97.20;;;;;;1727269;28;20200;-70
2022/12/10 09:46:50;;;;;;;26.30;23.05;;;4.90;97.20;;;;;;1720309;28;20200;-71
2022/12/10 09:47:50;;;;;;;27.02;23.90;;;4.80;97.20;;;;;;1720418;28;20259;-71
2022/12/10 09:48:52;;;;;;;25.70;23.10;;;4.80;97.20;;;;;;1720520;28;20569;-70
2022/12/10 09:49:54;;;;;;;26.02;23.10;;;4.80;97.20;;;;;;1720346;28;20210;-70
2022/12/10 09:50:54;;;;;;;30.33;25.92;;;4.80;97.20;;;;;;1720296;28;20218;-70
2022/12/10 09:51:45;;;;;;;29.50;25.45;;;4.80;97.20;;;;;;1720373;28;20205;-71
2022/12/10 09:52:40;;;;;;;32.63;28.43;;;4.80;97.20;;;;;;1720483;28;20663;-70
2022/12/10 09:53:33;;;;;;;31.63;28.20;;;4.80;97.20;;;;;;1720421;28;20189;-70
2022/12/10 09:54:28;;;;;;;29.83;26.63;;;4.80;97.20;;;;;;1720392;28;20283;-70
2022/12/10 09:55:22;;;;;;;29.67;26.50;;;4.80;97.20;;;;;;1720542;28;20216;-70
2022/12/10 09:56:22;;;;;;;29.23;26.05;;;4.90;97.20;;;;;;1720524;28;20259;-70
2022/12/10 09:57:20;;;;;;;28.65;25.33;;;4.90;97.20;;;;;;1720435;28;20185;-70
2022/12/10 09:58:18;;;;;;;27.92;24.85;;;4.90;97.20;;;;;;1721710;28;20643;-70
2022/12/10 09:59:18;;;;;;;30.08;26.98;;;5.00;97.20;;;;;;1727177;28;20188;-71
2022/12/10 10:00:19;;;;;;;26.98;24.27;;;5.00;97.20;;;;;;1726525;28;20646;-70
2022/12/10 10:01:14;;;;;;;27.08;23.67;;;5.00;97.20;;;;;;1720585;28;20190;-71
2022/12/10 10:02:20;;;;;;;26.30;23.60;;;5.10;97.20;;;;;;1727206;28;20189;-70
2022/12/10 10:03:14;;;;;;;28.42;25.42;;;5.10;97.20;;;;;;1727282;28;20584;-70
2022/12/10 10:04:06;;;;;;;27.92;25.05;;;5.10;97.20;;;;;;1726327;28;20620;-70
2022/12/10 10:05:07;;;;;;;27.25;24.48;;;5.10;97.20;;;;;;1727212;28;20208;-70
2022/12/10 10:05:58;;;;;;;26.65;23.85;;;5.10;97.20;;;;;;1727227;28;20216;-70
2022/12/10 10:06:50;;;;;;;26.65;23.63;;;5.10;97.20;;;;;;1726904;28;20204;-71
2022/12/10 10:07:46;;;;;;;26.27;23.48;;;5.10;97.20;;;;;;1727021;28;20208;-70
2022/12/10 10:08:42;;;;;;;26.48;23.58;;;5.20;97.20;;;;;;1727312;28;20689;-70
2022/12/10 10:09:38;;;;;;;25.65;22.52;;;5.20;97.20;;;;;;1727123;28;20212;-70
2022/12/10 10:10:32;;;;;;;27.30;24.30;;;5.20;97.20;;;;;;1726542;28;20262;-70
2022/12/10 10:11:27;;;;;;;26.20;23.50;;;5.20;97.20;;;;;;1726894;28;20232;-70
2022/12/10 10:12:18;;;;;;;27.05;24.15;;;5.20;97.20;;;;;;1727099;28;20205;-70
2022/12/10 10:13:19;;;;;;;26.50;22.58;;;5.20;97.20;;;;;;1726316;28;20212;-70
2022/12/10 10:14:14;;;;;;;25.33;22.60;;;5.20;97.20;;;;;;1724273;28;20196;-70
2022/12/10 10:15:13;;;;;;;27.10;24.25;;;5.20;97.20;;;;;;1726927;28;20215;-70
2022/12/10 10:16:25;;;;;;;26.48;23.65;;;5.20;97.20;;;;;;1726972;28;20209;-71
2022/12/10 10:17:21;;;;;;;27.65;24.65;;;5.20;97.20;;;;;;1726035;28;20201;-71
2022/12/10 10:18:18;;;;;;;26.20;23.50;;;5.20;97.20;;;;;;1725979;28;20181;-70
2022/12/10 10:19:13;;;;;;;27.23;24.48;;;5.20;97.20;;;;;;1727087;28;20208;-70
2022/12/10 10:20:06;;;;;;;27.15;23.73;;;5.10;97.20;;;;;;1726511;28;20209;-70
2022/12/10 10:20:57;;;;;;;26.25;23.42;;;5.10;97.20;;;;;;1726943;28;20251;-70
2022/12/10 10:21:51;;;;;;;26.60;23.15;;;5.10;97.20;;;;;;1726925;28;20197;-70
2022/12/10 10:22:42;;;;;;;26.08;23.27;;;5.10;97.20;;;;;;1727012;28;20208;-71
2022/12/10 10:23:34;;;;;;;27.02;24.33;;;5.10;97.20;;;;;;1727259;28;20200;-70
2022/12/10 10:24:34;;;;;;;27.17;24.27;;;5.10;97.20;;;;;;1726916;28;20235;-70
2022/12/10 10:25:26;;;;;;;26.13;23.50;;;5.10;97.20;;;;;;1726978;28;20216;-70
2022/12/10 10:26:18;;;;;;;27.55;24.65;;;5.10;97.20;;;;;;1727078;28;20235;-70
2022/12/10 10:27:13;;;;;;;27.25;24.35;;;5.10;97.20;;;;;;1726882;28;20201;-70
2022/12/10 10:28:05;;;;;;;26.52;23.67;;;5.10;97.20;;;;;;1726613;28;20203;-70
2022/12/10 10:28:59;;;;;;;28.50;25.40;;;5.10;97.20;;;;;;1727317;28;20591;-70
2022/12/10 10:29:53;;;;;;;27.77;24.77;;;5.10;97.20;;;;;;1727298;28;20650;-70